Time;durP1;ratioP1;P1;durP2;ratioP2;P2;SDS_P1;SDS_P2;PMS_P1;PMS_P2;Temp;Humidity;BMP_temperature;BMP_pressure;BME280_temperature;BME280_humidity;BME280_pressure;Samples;Min_cycle;Max_cycle;Signal;HPM_P1;HPM_P2
2022/02/03 00:00:42;;;;;;;;;;;;;;;;;;;;;
2022/02/03 00:04:26;;;;;;;7.80;3.20;;;;;;;;;;4735467;30;20060;-87
2022/02/03 00:11:43;;;;;;;3.30;3.00;;;;;;;;;;4726709;30;20061;-87
2022/02/03 00:26:50;;;;;;;3.15;1.85;;;;;;;;;;4725620;30;20067;-87
2022/02/03 00:34:40;;;;;;;4.60;3.20;;;;;;;;;;4644659;30;20054;-87
2022/02/03 00:49:09;;;;;;;;;;;;;;;;;;;;;
2022/02/03 00:53:12;;;;;;;4.88;3.85;;;;;;;;;;4687274;30;20050;-87
2022/02/03 01:00:46;;;;;;;3.15;2.03;;;;;;;;;;4644458;30;20806;-87
2022/02/03 01:04:54;;;;;;;;;;;;;;;;;;;;;
2022/02/03 01:13:35;;;;;;;2.37;2.17;;;;;;;;;;4714151;30;20382;-87
2022/02/03 01:57:31;;;;;;;;;;;;;;;;;;;;;
2022/02/03 02:02:25;;;;;;;;;;;;;;;;;;;;;
2022/02/03 02:38:14;;;;;;;5.95;5.43;;;;;;;;;;5047137;28;20069;-83
2022/02/03 02:41:16;;;;;;;8.57;4.25;;;;;;;;;;5071896;28;20044;-83
2022/02/03 02:43:36;;;;;;;4.70;3.63;;;;;;;;;;5076647;28;20053;-83
2022/02/03 02:46:19;;;;;;;3.70;2.80;;;;;;;;;;5061933;28;20075;-83
2022/02/03 02:48:47;;;;;;;7.85;5.10;;;;;;;;;;5068087;28;20052;-84
2022/02/03 02:51:25;;;;;;;3.47;3.17;;;;;;;;;;5065466;28;20075;-83
2022/02/03 02:58:07;;;;;;;6.30;3.35;;;;;;;;;;5068649;28;20040;-84
2022/02/03 03:03:26;;;;;;;2.60;2.40;;;;;;;;;;5063052;28;20052;-83
2022/02/03 03:36:18;;;;;;;8.32;5.13;;;;;;;;;;4915055;28;20051;-87
2022/02/03 03:39:27;;;;;;;4.57;4.18;;;;;;;;;;4935455;28;20069;-88
2022/02/03 03:43:19;;;;;;;2.92;2.45;;;;;;;;;;4919888;29;20048;-88
2022/02/03 03:46:51;;;;;;;3.30;2.90;;;;;;;;;;4940020;28;20055;-88
2022/02/03 03:50:43;;;;;;;3.70;2.97;;;;;;;;;;4935125;28;20617;-88
2022/02/03 04:31:15;;;;;;;4.57;3.58;;;;;;;;;;5025555;28;20060;-88
2022/02/03 05:07:09;;;;;;;;;;;;;;;;;;;;;
2022/02/03 05:48:49;;;;;;;;;;;;;;;;;;4955102;28;20052;-88
2022/02/03 06:16:36;;;;;;;29.90;7.45;;;;;;;;;;4992715;28;20139;-89
2022/02/03 06:21:56;;;;;;;41.15;9.55;;;;;;;;;;5004805;28;20046;-89
2022/02/03 06:29:51;;;;;;;11.73;7.68;;;;;;;;;;5026383;28;20284;-88
2022/02/03 06:32:19;;;;;;;10.13;5.68;;;;;;;;;;5049991;28;20399;-89
2022/02/03 06:34:48;;;;;;;101.57;18.77;;;;;;;;;;5016435;28;20048;-89
2022/02/03 06:37:16;;;;;;;23.95;8.93;;;;;;;;;;5032418;28;20049;-89
2022/02/03 06:39:44;;;;;;;86.40;16.60;;;;;;;;;;5048517;28;20068;-89
2022/02/03 06:42:13;;;;;;;40.92;8.05;;;;;;;;;;5032750;28;20049;-89
2022/02/03 06:44:46;;;;;;;59.60;10.13;;;;;;;;;;5049984;28;20395;-89
2022/02/03 06:52:42;;;;;;;33.30;10.50;;;;;;;;;;5076142;28;20055;-90
2022/02/03 06:58:14;;;;;;;12.13;8.90;;;;;;;;;;5039504;28;20635;-91
2022/02/03 07:00:53;;;;;;;75.95;11.73;;;;;;;;;;5108605;28;20490;-90
2022/02/03 07:03:25;;;;;;;15.38;5.88;;;;;;;;;;5101631;28;20055;-90
2022/02/03 07:05:53;;;;;;;;;;;;;;;;;;5081883;28;20051;-90
2022/02/03 07:08:29;;;;;;;70.03;9.80;;;;;;;;;;5083003;28;19935;-90
2022/02/03 07:10:59;;;;;;;37.97;6.25;;;;;;;;;;5103231;28;20043;-91
2022/02/03 07:13:27;;;;;;;29.27;6.03;;;;;;;;;;5118665;28;20044;-90
2022/02/03 07:15:58;;;;;;;44.97;11.38;;;;;;;;;;5100026;28;20359;-90
2022/02/03 07:18:27;;;;;;;12.93;8.95;;;;;;;;;;5115876;28;20036;-90
2022/02/03 07:20:55;;;;;;;17.70;7.47;;;;;;;;;;5099771;28;20394;-90
2022/02/03 07:23:24;;;;;;;6.05;5.15;;;;;;;;;;5082649;28;20062;-90
2022/02/03 07:25:52;;;;;;;8.20;5.30;;;;;;;;;;5098860;28;20047;-90
2022/02/03 07:28:20;;;;;;;7.10;6.30;;;;;;;;;;5081863;28;20058;-87
2022/02/03 07:30:48;;;;;;;12.98;7.20;;;;;;;;;;5082390;28;20052;-88
2022/02/03 07:33:16;;;;;;;12.95;6.95;;;;;;;;;;5116558;28;20062;-88
2022/02/03 07:35:45;;;;;;;6.45;5.32;;;;;;;;;;5098528;28;20489;-87
2022/02/03 07:38:14;;;;;;;11.15;5.55;;;;;;;;;;5098868;28;20043;-89
2022/02/03 07:40:42;;;;;;;7.60;6.65;;;;;;;;;;5099057;28;20035;-89
2022/02/03 07:43:11;;;;;;;12.95;4.72;;;;;;;;;;5118284;28;20051;-88
2022/02/03 07:45:39;;;;;;;6.55;4.97;;;;;;;;;;5081476;28;20047;-89
2022/02/03 07:48:07;;;;;;;6.45;5.03;;;;;;;;;;5081114;28;20055;-88
2022/02/03 07:50:35;;;;;;;5.97;5.38;;;;;;;;;;5098839;28;20398;-89
2022/02/03 07:53:04;;;;;;;6.78;4.70;;;;;;;;;;5081286;28;20048;-89
2022/02/03 07:55:35;;;;;;;6.10;4.43;;;;;;;;;;5065149;28;20052;-89
2022/02/03 08:02:45;;;;;;;10.80;6.53;;;;;;;;;;5093169;28;20031;-89
2022/02/03 08:05:17;;;;;;;21.25;6.65;;;;;;;;;;5116710;28;20047;-90
2022/02/03 08:08:05;;;;;;;15.93;7.85;;;;;;;;;;5081573;28;20048;-89
2022/02/03 08:10:41;;;;;;;14.75;7.88;;;;;;;;;;5082035;28;20058;-90
2022/02/03 08:13:14;;;;;;;11.75;6.63;;;;;;;;;;5081354;28;20508;-90
2022/02/03 08:15:43;;;;;;;21.52;7.30;;;;;;;;;;5097932;28;20040;-91
2022/02/03 08:18:17;;;;;;;6.72;5.10;;;;;;;;;;5081997;28;20044;-90
2022/02/03 08:20:56;;;;;;;8.50;6.90;;;;;;;;;;5081622;28;20044;-90
2022/02/03 08:33:41;;;;;;;5.15;4.55;;;;;;;;;;5100142;28;20375;-90
2022/02/03 08:36:12;;;;;;;5.65;5.15;;;;;;;;;;5116593;28;20390;-90
2022/02/03 08:41:10;;;;;;;5.70;5.20;;;;;;;;;;5097786;28;20036;-91
2022/02/03 08:43:40;;;;;;;6.10;4.93;;;;;;;;;;5075372;27;20047;-91
2022/02/03 08:46:14;;;;;;;9.45;6.63;;;;;;;;;;5071915;28;20083;-92
2022/02/03 08:48:43;;;;;;;7.72;5.30;;;;;;;;;;5085706;28;20051;-87
2022/02/03 08:51:13;;;;;;;5.60;5.07;;;;;;;;;;5088677;28;20052;-89
2022/02/03 08:53:46;;;;;;;9.88;5.90;;;;;;;;;;5087785;28;20457;-88
2022/02/03 08:56:28;;;;;;;6.82;6.18;;;;;;;;;;5088004;28;20035;-88
2022/02/03 08:59:29;;;;;;;3.50;3.20;;;;;;;;;;5094956;27;20043;-89
2022/02/03 09:40:56;;;;;;;4.90;3.28;;;;;;;;;;5091089;28;20529;-86
2022/02/03 10:02:27;;;;;;;4.32;3.60;;;;;;;;;;5108328;27;20413;-83
2022/02/03 10:07:28;;;;;;;3.80;3.13;;;;;;;;;;5120487;27;20778;-83
2022/02/03 10:09:58;;;;;;;3.28;2.50;;;;;;;;;;5126985;27;20072;-83
2022/02/03 10:12:35;;;;;;;2.40;2.03;;;;;;;;;;5124949;28;20046;-82
2022/02/03 10:15:05;;;;;;;3.80;3.13;;;;;;;;;;5108251;28;20050;-82
2022/02/03 10:17:37;;;;;;;5.70;3.50;;;;;;;;;;5124175;28;20043;-81
2022/02/03 10:20:12;;;;;;;4.30;3.87;;;;;;;;;;5105575;28;20047;-86
2022/02/03 10:22:55;;;;;;;3.63;3.33;;;;;;;;;;5095783;28;20050;-83
2022/02/03 10:25:29;;;;;;;2.75;2.58;;;;;;;;;;5080118;28;20052;-86
2022/02/03 10:28:05;;;;;;;4.57;3.23;;;;;;;;;;5070202;28;20047;-86
2022/02/03 10:30:48;;;;;;;4.47;3.83;;;;;;;;;;5068687;28;20523;-85
2022/02/03 10:33:19;;;;;;;7.78;3.10;;;;;;;;;;5081112;28;20423;-83
2022/02/03 10:35:53;;;;;;;4.80;3.75;;;;;;;;;;5079076;28;20390;-85
2022/02/03 10:46:57;;;;;;;5.45;3.83;;;;;;;;;;5071736;28;20058;-85
2022/02/03 10:50:14;;;;;;;4.50;2.88;;;;;;;;;;5036888;28;20059;-86
2022/02/03 10:53:38;;;;;;;4.85;3.38;;;;;;;;;;5068638;28;20044;-87
2022/02/03 11:06:40;;;;;;;3.03;2.55;;;;;;;;;;5107686;28;20050;-84
2022/02/03 11:09:22;;;;;;;5.43;3.38;;;;;;;;;;5087441;28;20048;-85
2022/02/03 11:11:55;;;;;;;;;;;;;;;;;;5074603;28;20044;-86
2022/02/03 11:14:24;;;;;;;4.88;3.17;;;;;;;;;;5091215;28;19924;-84
2022/02/03 11:16:53;;;;;;;3.42;3.13;;;;;;;;;;5091909;28;20044;-85
2022/02/03 11:19:28;;;;;;;2.08;1.95;;;;;;;;;;5091551;28;20043;-84
2022/02/03 11:22:04;;;;;;;2.30;2.10;;;;;;;;;;5091927;28;20054;-84
2022/02/03 11:24:37;;;;;;;5.13;2.33;;;;;;;;;;5101000;28;20058;-84
2022/02/03 11:27:17;;;;;;;3.70;2.95;;;;;;;;;;5090893;27;20058;-84
2022/02/03 11:30:30;;;;;;;3.38;2.50;;;;;;;;;;5090540;28;20502;-85
2022/02/03 11:33:50;;;;;;;2.40;2.20;;;;;;;;;;5109255;28;20048;-85
2022/02/03 11:41:37;;;;;;;2.20;2.00;;;;;;;;;;5107766;28;20518;-85
2022/02/03 11:47:44;;;;;;;2.25;2.08;;;;;;;;;;5107547;28;20410;-85
2022/02/03 11:59:48;;;;;;;2.60;2.40;;;;;;;;;;5083558;28;20059;-86
2022/02/03 12:02:32;;;;;;;2.88;2.47;;;;;;;;;;5080719;28;20048;-86
2022/02/03 12:22:17;;;;;;;3.63;2.47;;;;;;;;;;5074321;28;20051;-85
2022/02/03 12:25:28;;;;;;;2.00;1.83;;;;;;;;;;5084802;27;20047;-85
2022/02/03 12:41:43;;;;;;;2.13;1.73;;;;;;;;;;5089647;28;20059;-86
2022/02/03 12:44:22;;;;;;;2.65;2.45;;;;;;;;;;5069832;28;20044;-85
2022/02/03 12:46:50;;;;;;;1.85;1.75;;;;;;;;;;5074002;27;20505;-88
2022/02/03 12:49:21;;;;;;;4.40;3.05;;;;;;;;;;5090421;28;20544;-86
2022/02/03 12:52:19;;;;;;;2.33;2.00;;;;;;;;;;5068224;28;20036;-87
2022/02/03 12:55:38;;;;;;;2.30;1.77;;;;;;;;;;5073538;28;20059;-86
2022/02/03 13:03:00;;;;;;;2.53;2.25;;;;;;;;;;5104159;27;20039;-85
2022/02/03 13:06:20;;;;;;;4.05;2.95;;;;;;;;;;5073256;28;20518;-85
2022/02/03 13:09:09;;;;;;;2.40;2.20;;;;;;;;;;5076559;28;20403;-86
2022/02/03 13:12:28;;;;;;;5.20;2.60;;;;;;;;;;5085163;28;20055;-86
2022/02/03 13:15:41;;;;;;;2.97;2.20;;;;;;;;;;5088620;28;20063;-88
2022/02/03 13:18:50;;;;;;;2.00;1.90;;;;;;;;;;5070869;28;20059;-82
2022/02/03 13:26:58;;;;;;;2.75;2.50;;;;;;;;;;5085607;28;20654;-84
2022/02/03 13:29:39;;;;;;;1.90;1.77;;;;;;;;;;5068160;28;20047;-83
2022/02/03 13:32:21;;;;;;;2.22;2.05;;;;;;;;;;5085586;28;20054;-85
2022/02/03 13:35:13;;;;;;;3.15;1.88;;;;;;;;;;5068584;28;20055;-84
2022/02/03 13:38:08;;;;;;;2.28;2.05;;;;;;;;;;5082787;28;20052;-86
2022/02/03 13:40:58;;;;;;;1.60;1.40;;;;;;;;;;5072177;28;20055;-85
2022/02/03 13:43:38;;;;;;;1.98;1.77;;;;;;;;;;5088963;28;20035;-86
2022/02/03 13:46:12;;;;;;;3.38;1.30;;;;;;;;;;5089684;28;20051;-84
2022/02/03 13:48:41;;;;;;;4.70;1.80;;;;;;;;;;5087990;28;20043;-86
2022/02/03 13:51:10;;;;;;;4.55;3.78;;;;;;;;;;5088728;28;20054;-83
2022/02/03 13:53:48;;;;;;;;;;;;;;;;;;5088205;28;20043;-85
2022/02/03 14:29:20;;;;;;;3.13;1.90;;;;;;;;;;5047257;28;20477;-86
2022/02/03 14:31:58;;;;;;;2.22;1.70;;;;;;;;;;5033860;28;20051;-86
2022/02/03 14:34:51;;;;;;;;;;;;;;;;;;;;;
2022/02/03 14:38:50;;;;;;;2.17;1.98;;;;;;;;;;4963955;28;20054;-86
2022/02/03 14:46:36;;;;;;;2.42;2.22;;;;;;;;;;4824113;29;20802;-91
2022/02/03 14:49:40;;;;;;;2.30;2.10;;;;;;;;;;4805210;29;20053;-90
2022/02/03 15:02:56;;;;;;;3.60;2.75;;;;;;;;;;4772756;29;20043;-87
2022/02/03 15:16:20;;;;;;;3.63;3.42;;;;;;;;;;4707303;30;20048;-87
2022/02/03 15:28:46;;;;;;;2.67;2.28;;;;;;;;;;4725176;30;20050;-87
2022/02/03 15:36:31;;;;;;;4.53;2.60;;;;;;;;;;4667499;30;20766;-83
2022/02/03 15:39:14;;;;;;;2.75;2.47;;;;;;;;;;4722282;29;20052;-82
2022/02/03 15:45:12;;;;;;;4.03;3.45;;;;;;;;;;4751746;30;20063;-78
2022/02/03 15:47:58;;;;;;;5.47;5.10;;;;;;;;;;4749197;30;20062;-79
2022/02/03 15:57:52;;;;;;;2.42;2.25;;;;;;;;;;4754860;30;20040;-81
2022/02/03 16:00:35;;;;;;;2.13;1.58;;;;;;;;;;4758664;30;20054;-82
2022/02/03 16:18:37;;;;;;;2.28;2.03;;;;;;;;;;4765252;30;20059;-81
2022/02/03 16:21:29;;;;;;;7.10;3.58;;;;;;;;;;4748571;30;20062;-83
2022/02/03 16:43:30;;;;;;;2.55;2.35;;;;;;;;;;4768555;30;20056;-80
2022/02/03 16:54:17;;;;;;;3.53;2.78;;;;;;;;;;4770149;30;20055;-80
2022/02/03 16:56:49;;;;;;;6.50;3.00;;;;;;;;;;4763889;30;20051;-80
2022/02/03 16:59:17;;;;;;;3.63;3.13;;;;;;;;;;4767014;29;20408;-80
2022/02/03 17:01:45;;;;;;;3.17;2.92;;;;;;;;;;4764394;30;20052;-80
2022/02/03 17:04:17;;;;;;;2.38;1.77;;;;;;;;;;4763975;30;20048;-80
2022/02/03 17:06:46;;;;;;;3.30;2.95;;;;;;;;;;4772295;30;20060;-78
2022/02/03 17:09:14;;;;;;;4.95;2.85;;;;;;;;;;4762401;30;20801;-78
2022/02/03 17:11:42;;;;;;;4.25;2.97;;;;;;;;;;4763746;29;20059;-85
2022/02/03 17:14:13;;;;;;;2.83;2.63;;;;;;;;;;4732938;30;20066;-80
2022/02/03 17:16:41;;;;;;;3.80;3.08;;;;;;;;;;4763643;30;20063;-80
2022/02/03 17:19:09;;;;;;;3.78;3.38;;;;;;;;;;4774413;29;20094;-81
2022/02/03 17:21:40;;;;;;;7.03;6.43;;;;;;;;;;4778060;30;20784;-81
2022/02/03 17:24:16;;;;;;;4.40;3.10;;;;;;;;;;4749132;30;20051;-85
2022/02/03 17:27:04;;;;;;;5.78;4.40;;;;;;;;;;4717889;30;20091;-85
2022/02/03 17:30:16;;;;;;;3.80;3.45;;;;;;;;;;4718436;30;20072;-84
2022/02/03 17:52:50;;;;;;;2.90;2.70;;;;;;;;;;4790402;29;20412;-78
2022/02/03 18:04:03;;;;;;;8.73;4.40;;;;;;;;;;4780970;29;20090;-78
2022/02/03 18:07:17;;;;;;;3.78;3.42;;;;;;;;;;4781658;29;20078;-79
2022/02/03 18:10:26;;;;;;;6.60;3.60;;;;;;;;;;4790941;29;20063;-79
2022/02/03 18:37:30;;;;;;;3.80;3.22;;;;;;;;;;4780689;29;20052;-78
2022/02/03 18:51:02;;;;;;;7.90;6.40;;;;;;;;;;4764662;29;20055;-80
2022/02/03 18:56:14;;;;;;;13.68;7.20;;;;;;;;;;4783482;30;20384;-77
2022/02/03 18:58:51;;;;;;;8.80;7.83;;;;;;;;;;4783864;30;20059;-77
2022/02/03 20:04:49;;;;;;;11.75;7.55;;;;;;;;;;4752908;30;20078;-79
2022/02/03 20:10:12;;;;;;;7.32;6.05;;;;;;;;;;4783391;30;20412;-82
2022/02/03 20:12:40;;;;;;;5.15;4.75;;;;;;;;;;4781619;29;20443;-81
2022/02/03 20:15:10;;;;;;;7.30;5.93;;;;;;;;;;4782426;29;20059;-80
2022/02/03 20:17:38;;;;;;;8.02;5.82;;;;;;;;;;4782019;30;20051;-79
2022/02/03 20:20:08;;;;;;;8.43;7.55;;;;;;;;;;4783017;29;20055;-78
2022/02/03 20:22:39;;;;;;;7.67;6.13;;;;;;;;;;4766671;30;20055;-78
2022/02/03 20:25:13;;;;;;;7.82;7.10;;;;;;;;;;4763591;30;20063;-78
2022/02/03 20:27:41;;;;;;;7.35;6.40;;;;;;;;;;4782722;29;20530;-78
2022/02/03 20:30:10;;;;;;;11.20;7.75;;;;;;;;;;4766007;30;20051;-78
2022/02/03 20:32:38;;;;;;;8.63;7.65;;;;;;;;;;4782605;29;20051;-78
2022/02/03 20:35:07;;;;;;;9.93;6.45;;;;;;;;;;4780494;29;20063;-78
2022/02/03 20:37:36;;;;;;;7.97;6.82;;;;;;;;;;4791529;29;20055;-80
2022/02/03 20:40:05;;;;;;;6.18;4.80;;;;;;;;;;4795581;29;20074;-78
2022/02/03 20:42:35;;;;;;;5.88;5.38;;;;;;;;;;4774076;30;20055;-78
2022/02/03 20:45:07;;;;;;;9.82;6.47;;;;;;;;;;4781781;29;20425;-78
2022/02/03 20:47:40;;;;;;;6.40;5.80;;;;;;;;;;4789010;29;20063;-78
2022/02/03 20:50:20;;;;;;;8.15;7.20;;;;;;;;;;4785837;29;20082;-77
2022/02/03 20:52:49;;;;;;;;;;;;;;;;;;4784572;29;20051;-78
2022/02/03 20:55:23;;;;;;;11.98;5.75;;;;;;;;;;4779970;29;19952;-78
2022/02/03 20:57:52;;;;;;;8.57;6.82;;;;;;;;;;4781585;29;20055;-80
2022/02/03 21:00:25;;;;;;;11.98;9.23;;;;;;;;;;4779872;29;20051;-78
2022/02/03 21:03:04;;;;;;;8.05;5.38;;;;;;;;;;4781630;29;20055;-78
2022/02/03 21:05:32;;;;;;;6.60;5.85;;;;;;;;;;4751465;30;20058;-78
2022/02/03 21:08:03;;;;;;;5.13;4.78;;;;;;;;;;4761002;29;20063;-78
2022/02/03 21:10:35;;;;;;;7.68;6.22;;;;;;;;;;4767997;29;20480;-78
2022/02/03 21:13:05;;;;;;;8.55;7.70;;;;;;;;;;4780938;29;20047;-78
2022/02/03 21:15:38;;;;;;;8.02;7.22;;;;;;;;;;4781584;29;20595;-78
2022/02/03 21:18:11;;;;;;;5.85;5.43;;;;;;;;;;4781242;29;20058;-78
2022/02/03 21:20:41;;;;;;;5.95;4.78;;;;;;;;;;4767997;29;20054;-78
2022/02/03 21:23:10;;;;;;;5.65;5.00;;;;;;;;;;4781222;29;20055;-78
2022/02/03 21:25:42;;;;;;;9.05;7.88;;;;;;;;;;4781747;29;20058;-78
2022/02/03 21:28:20;;;;;;;6.50;5.88;;;;;;;;;;4791997;29;20051;-79
2022/02/03 21:30:49;;;;;;;7.38;6.72;;;;;;;;;;4781473;29;20055;-78
2022/02/03 21:33:24;;;;;;;7.30;6.55;;;;;;;;;;4784990;29;20066;-78
2022/02/03 21:35:56;;;;;;;7.45;4.80;;;;;;;;;;4784803;29;20062;-78
2022/02/03 21:38:24;;;;;;;6.93;6.22;;;;;;;;;;4766507;30;20098;-78
2022/02/03 21:40:54;;;;;;;7.38;6.70;;;;;;;;;;4781264;29;20055;-78
2022/02/03 21:43:23;;;;;;;8.95;6.45;;;;;;;;;;4780534;29;20404;-78
2022/02/03 21:45:51;;;;;;;6.20;5.15;;;;;;;;;;4781852;29;20062;-78
2022/02/03 21:48:19;;;;;;;8.20;4.78;;;;;;;;;;4764541;29;20051;-78
2022/02/03 21:50:49;;;;;;;8.27;6.60;;;;;;;;;;4781274;29;20051;-80
2022/02/03 21:53:21;;;;;;;5.63;5.15;;;;;;;;;;4781607;29;20063;-78
2022/02/03 21:55:51;;;;;;;6.22;5.00;;;;;;;;;;4784576;29;20043;-78
2022/02/03 21:58:25;;;;;;;5.65;5.05;;;;;;;;;;4789674;29;20045;-78
2022/02/03 22:00:55;;;;;;;8.05;4.85;;;;;;;;;;4780852;29;20055;-78
2022/02/03 22:03:26;;;;;;;5.57;5.05;;;;;;;;;;4785063;29;20062;-78
2022/02/03 22:05:56;;;;;;;5.43;4.55;;;;;;;;;;4781676;29;20051;-78
2022/02/03 22:08:24;;;;;;;6.80;5.43;;;;;;;;;;4780739;29;20063;-78
2022/02/03 22:10:55;;;;;;;5.30;4.63;;;;;;;;;;4765133;29;20058;-78
2022/02/03 22:13:33;;;;;;;6.72;4.88;;;;;;;;;;4765040;30;20062;-78
2022/02/03 22:16:07;;;;;;;7.63;4.57;;;;;;;;;;4780942;29;20058;-78
2022/02/03 22:18:35;;;;;;;4.85;4.45;;;;;;;;;;4781117;30;20052;-78
2022/02/03 22:21:13;;;;;;;6.85;5.75;;;;;;;;;;4780816;29;20074;-78
2022/02/03 22:23:51;;;;;;;5.63;4.40;;;;;;;;;;4780271;29;20047;-78
2022/02/03 22:43:04;;;;;;;6.07;4.28;;;;;;;;;;4788211;29;20062;-78
2022/02/03 22:45:57;;;;;;;7.07;6.47;;;;;;;;;;4793936;29;20463;-78
2022/02/03 22:48:26;;;;;;;7.38;5.13;;;;;;;;;;4783867;29;20415;-78
2022/02/03 22:50:58;;;;;;;7.45;4.90;;;;;;;;;;4784284;29;20047;-78
2022/02/03 22:53:34;;;;;;;5.45;3.72;;;;;;;;;;4784300;29;20051;-78
2022/02/03 22:56:03;;;;;;;8.75;4.30;;;;;;;;;;4784079;29;20058;-78
2022/02/03 23:01:07;;;;;;;6.55;5.90;;;;;;;;;;4783646;29;20424;-78
2022/02/03 23:03:35;;;;;;;7.15;6.45;;;;;;;;;;4783956;29;20059;-78
2022/02/03 23:06:04;;;;;;;9.10;6.95;;;;;;;;;;4784885;29;20051;-78
2022/02/03 23:17:02;;;;;;;3.95;3.65;;;;;;;;;;4764909;30;20503;-77
2022/02/03 23:20:04;;;;;;;5.22;4.72;;;;;;;;;;4776833;29;20055;-77
2022/02/03 23:22:33;;;;;;;5.50;4.72;;;;;;;;;;4784269;30;20055;-77
2022/02/03 23:25:02;;;;;;;4.85;4.28;;;;;;;;;;4783832;29;20080;-77
2022/02/03 23:30:10;;;;;;;5.35;4.85;;;;;;;;;;4783656;30;20059;-78
2022/02/03 23:32:43;;;;;;;3.75;3.45;;;;;;;;;;4784491;29;20059;-85
2022/02/03 23:37:45;;;;;;;6.40;5.82;;;;;;;;;;4784375;30;20047;-78
2022/02/03 23:40:30;;;;;;;;;;;;;;;;;;4783160;29;20073;-78
2022/02/03 23:46:23;;;;;;;4.05;3.72;;;;;;;;;;4783946;30;20059;-78
